Terminal Aerodrome Forecast
Issued by NWS

Home | Current Version | Previous Version | Text Only | Print | Product List | Glossary On
Versions: 1 2 3 4 5 6 7 8 9 10 11 12 13
000
FTUS43 KFGF 230520
TAFTVF
TAF
KTVF 230520Z 2306/2406 20006KT P6SM SKC
     FM231600 20009G17KT P6SM SCT250
     FM232200 19009G18KT P6SM SCT060 BKN250
      AMD LTD TO CLD VIS AND WIND=

USA.gov is the U.S. government's official web portal to all federal, state and local government web resources and services.